Airfield :
LOGIN :

Register | Disclaimer

   EN    FR    IT 

 










Legend :    VFR   Marginal VFR   IFR   Intensive IFR   Very Intensive IFR
Visi :
Ceiling :
>= 8 km
>= 3000ft
5 to 8 km
1000 to 3000 ft
1500m to 5 km
500 to 1000 ft
800 to 1500m
200 to 500 ft
< 800m
< 200 ft
Symbols :   Thunderstorms  Fog  Heavy snow  Heavy precipitations  Wind > 20 kt
SIGMETs :     Misc.  Thunderstorms  Icing  Turbulence  Mountain Waves  Volcanic Ashes







- Airport Elevation : 37 ft
- IATA code : HLY


EGOV - RAF Valley

CURRENT METAR :
  • 220550Z 17012KT 9999 FEW010 BKN060 BKN110 12/09 Q1018 BLU NOSIG

EXPIRED METARs :
  • 220450Z AUTO 19011KT 9999 BKN060/// BKN110/// 12/09 Q1018
  • 220350Z AUTO 18011KT 9999 BKN070/// BKN120/// 12/09 Q1018

TAF TAF EGOV
Valid from the 22 at 06:00 until the 22 at 15:00 UTC


220512Z 2206/2215 21010KT 9999 FEW012 SCT040
PROB30
TEMPO 2206/2209 SCT012
No reported NOTAMs for that airfield.



MET'MAP, your aeronautical weather chart ! - Copyright ORBIFLY December 2007 - Disclaimer

ORBIFLY MET'MAP TEAM :

Programming & Development : Alexandra Zaïnal
Concept & Development : Baudouin d'Aumeries
Co-Development & Prog : Marc-Olivier Méhu
Technical & hardware support : Manuel Goepfert

Contact : metmap@orbifly.com




SOURCES & CREDITS :

   NOAA